createdAt,value
2022-12-18T00:04:21.784Z,42.10
2022-12-18T00:09:24.929Z,39.00
2022-12-18T00:14:33.115Z,42.63
2022-12-18T00:19:35.236Z,44.72
2022-12-18T00:24:37.486Z,39.92
2022-12-18T00:29:39.600Z,47.55
2022-12-18T00:34:41.760Z,46.00
2022-12-18T00:39:43.893Z,50.87
2022-12-18T00:44:46.040Z,38.83
2022-12-18T00:49:48.208Z,40.30
2022-12-18T00:54:50.310Z,39.30
2022-12-18T00:59:52.449Z,45.47
2022-12-18T01:04:54.543Z,40.57
2022-12-18T01:09:56.934Z,47.75
2022-12-18T01:14:59.359Z,29.52
2022-12-18T01:20:01.711Z,45.17
2022-12-18T01:25:05.332Z,31.58
2022-12-18T01:30:08.403Z,40.90
2022-12-18T01:35:10.564Z,29.25
2022-12-18T01:40:12.964Z,44.42
2022-12-18T01:45:14.985Z,40.40
2022-12-18T01:50:40.513Z,35.92
2022-12-18T01:55:47.719Z,33.60
2022-12-18T02:00:49.916Z,41.03
2022-12-18T02:06:16.029Z,38.75
2022-12-18T02:11:30.345Z,43.67
2022-12-18T02:17:02.138Z,43.20
2022-12-18T02:22:13.493Z,40.73
2022-12-18T02:27:16.368Z,45.25
2022-12-18T02:32:27.996Z,39.92
2022-12-18T02:37:31.863Z,42.47
2022-12-18T02:42:34.038Z,47.15
2022-12-18T02:47:40.234Z,34.57
2022-12-18T02:53:10.307Z,36.50
2022-12-18T02:58:17.965Z,43.38
2022-12-18T03:03:30.300Z,39.70
2022-12-18T03:08:42.856Z,39.40
2022-12-18T03:13:57.165Z,43.80
2022-12-18T03:19:04.048Z,40.72
2022-12-18T03:24:10.598Z,44.40
2022-12-18T03:29:42.183Z,37.97
2022-12-18T03:34:47.502Z,48.22
2022-12-18T03:39:49.804Z,48.23
2022-12-18T03:45:06.238Z,43.33
2022-12-18T03:50:19.079Z,49.08
2022-12-18T03:55:23.690Z,45.08
2022-12-18T04:00:25.916Z,44.95
2022-12-18T04:05:29.653Z,48.13
2022-12-18T04:10:31.839Z,50.88
2022-12-18T04:15:37.944Z,47.35
2022-12-18T04:20:40.143Z,46.67
2022-12-18T04:25:42.210Z,44.17
2022-12-18T04:30:44.355Z,47.80
2022-12-18T04:35:47.630Z,43.08
2022-12-18T04:40:49.809Z,38.42
2022-12-18T04:45:51.944Z,38.75
2022-12-18T04:50:54.096Z,45.55
2022-12-18T04:56:05.494Z,42.40
2022-12-18T05:01:08.594Z,41.67
2022-12-18T05:06:11.019Z,39.55
2022-12-18T05:11:16.777Z,33.63
2022-12-18T05:16:18.856Z,46.25
2022-12-18T05:21:20.984Z,41.33
2022-12-18T05:26:23.234Z,44.30
2022-12-18T05:31:25.434Z,45.20
2022-12-18T05:36:27.535Z,47.45
2022-12-18T05:41:29.842Z,43.75
2022-12-18T05:46:31.981Z,45.00
2022-12-18T05:51:34.050Z,45.05
2022-12-18T05:56:36.140Z,44.58
2022-12-18T06:01:38.358Z,39.30
2022-12-18T06:06:40.481Z,44.50
2022-12-18T06:11:42.716Z,40.63
2022-12-18T06:16:45.233Z,43.05
2022-12-18T06:21:48.085Z,48.85
2022-12-18T06:26:50.149Z,40.90
2022-12-18T06:31:52.269Z,39.58
2022-12-18T06:36:54.389Z,41.33
2022-12-18T06:41:56.765Z,44.80
2022-12-18T06:46:58.885Z,44.80
2022-12-18T06:52:00.929Z,45.47
2022-12-18T06:57:03.073Z,47.75
2022-12-18T07:02:05.751Z,44.07
2022-12-18T07:07:07.927Z,48.87
2022-12-18T07:12:10.529Z,43.13
2022-12-18T07:17:13.014Z,46.55
2022-12-18T07:22:15.140Z,50.10
2022-12-18T07:27:17.497Z,44.70
2022-12-18T07:32:20.237Z,43.03
2022-12-18T07:37:22.329Z,44.15
2022-12-18T07:42:33.287Z,44.33
2022-12-18T07:47:37.130Z,47.30
2022-12-18T07:52:39.200Z,43.43
2022-12-18T07:57:50.360Z,47.85
2022-12-18T08:02:53.575Z,40.67
2022-12-18T08:07:56.002Z,44.90
2022-12-18T08:13:03.110Z,42.15
2022-12-18T08:18:12.711Z,42.63
2022-12-18T08:23:16.290Z,44.22
2022-12-18T08:28:18.479Z,39.67
2022-12-18T08:33:20.548Z,41.08
2022-12-18T08:38:23.872Z,43.75
2022-12-18T08:43:44.631Z,43.57
2022-12-18T08:48:46.856Z,50.97
2022-12-18T08:53:49.004Z,44.67
2022-12-18T08:58:55.376Z,45.90
2022-12-18T09:03:57.584Z,39.00
2022-12-18T09:08:59.794Z,48.80
2022-12-18T09:14:02.712Z,46.08
2022-12-18T09:19:06.774Z,43.60
2022-12-18T09:24:13.518Z,45.40
2022-12-18T09:29:18.958Z,47.83
2022-12-18T09:34:22.877Z,46.10
2022-12-18T09:39:24.985Z,43.50
2022-12-18T09:44:31.943Z,46.70
2022-12-18T09:49:40.401Z,44.15
2022-12-18T09:54:47.757Z,40.17
2022-12-18T10:00:19.584Z,44.87
2022-12-18T10:05:40.196Z,43.15
2022-12-18T10:10:53.494Z,39.50
2022-12-18T10:16:01.589Z,43.13
2022-12-18T10:21:22.684Z,43.75
2022-12-18T10:26:26.064Z,41.93
2022-12-18T10:31:28.577Z,44.00
2022-12-18T10:36:31.018Z,42.65
2022-12-18T10:41:33.389Z,41.33
2022-12-18T10:46:35.882Z,39.65
2022-12-18T10:51:39.088Z,41.40
2022-12-18T10:56:43.115Z,41.47
2022-12-18T11:01:48.090Z,40.45
2022-12-18T11:06:56.692Z,37.35
2022-12-18T11:12:07.108Z,39.50
2022-12-18T11:17:26.455Z,36.60
2022-12-18T11:22:48.823Z,37.85
2022-12-18T11:28:03.542Z,33.80
2022-12-18T11:33:11.769Z,34.60
2022-12-18T11:38:24.365Z,34.20
2022-12-18T11:43:32.990Z,34.53
2022-12-18T11:48:46.374Z,36.45
2022-12-18T11:53:48.477Z,30.12
2022-12-18T11:59:32.050Z,33.65
2022-12-18T12:04:42.692Z,31.75
2022-12-18T12:09:50.756Z,31.73
2022-12-18T12:15:14.252Z,33.30
2022-12-18T12:20:53.486Z,34.47
2022-12-18T12:26:07.710Z,33.92
2022-12-18T12:31:46.657Z,35.03
2022-12-18T12:37:08.894Z,34.43
2022-12-18T12:42:46.508Z,36.47
2022-12-18T12:47:52.062Z,35.55
2022-12-18T12:52:56.861Z,37.75
2022-12-18T12:58:15.600Z,36.28
2022-12-18T13:03:45.129Z,37.60
2022-12-18T13:09:01.675Z,38.28
2022-12-18T13:14:03.919Z,38.55
2022-12-18T13:19:27.564Z,36.55
2022-12-18T13:24:32.405Z,36.53
2022-12-18T13:29:46.593Z,34.17
2022-12-18T13:34:50.187Z,35.60
2022-12-18T13:39:52.286Z,35.08
2022-12-18T13:44:54.472Z,35.58
2022-12-18T13:49:58.137Z,34.10
2022-12-18T13:55:03.419Z,57.80
2022-12-18T14:00:26.814Z,36.25
2022-12-18T14:05:33.330Z,39.47
2022-12-18T14:10:47.974Z,34.42
2022-12-18T14:15:52.279Z,35.28
2022-12-18T14:20:58.541Z,34.77
2022-12-18T14:26:25.626Z,40.50
2022-12-18T14:31:31.038Z,39.53
2022-12-18T14:36:33.138Z,37.83
2022-12-18T14:41:35.473Z,40.88
2022-12-18T14:46:39.371Z,45.77
2022-12-18T14:51:49.679Z,43.15
2022-12-18T14:57:16.642Z,40.88
2022-12-18T15:02:29.770Z,41.03
2022-12-18T15:07:48.667Z,45.47
2022-12-18T15:12:56.978Z,51.23
2022-12-18T15:18:01.003Z,52.00
2022-12-18T15:23:03.186Z,46.95
2022-12-18T15:28:17.047Z,44.47
2022-12-18T15:33:27.746Z,45.78
2022-12-18T15:38:30.123Z,39.47
2022-12-18T15:43:35.314Z,36.90
2022-12-18T15:48:46.662Z,45.30
2022-12-18T15:53:51.203Z,35.47
2022-12-18T15:58:53.279Z,39.78
2022-12-18T16:03:56.092Z,41.83
2022-12-18T16:08:58.313Z,41.42
2022-12-18T16:14:00.794Z,41.88
2022-12-18T16:19:03.154Z,40.17
2022-12-18T16:24:05.821Z,40.80
2022-12-18T16:29:07.928Z,42.07
2022-12-18T16:34:28.802Z,43.47
2022-12-18T16:39:32.036Z,43.55
2022-12-18T16:44:35.309Z,40.03
2022-12-18T16:49:38.607Z,48.00
2022-12-18T16:54:43.955Z,43.23
2022-12-18T16:59:47.134Z,43.20
2022-12-18T17:04:49.284Z,46.78
2022-12-18T17:09:51.634Z,42.17
2022-12-18T17:14:53.735Z,45.70
2022-12-18T17:19:55.922Z,49.87
2022-12-18T17:24:58.077Z,43.87
2022-12-18T17:30:00.161Z,45.97
2022-12-18T17:35:06.970Z,48.22
2022-12-18T17:40:10.196Z,47.33
2022-12-18T17:45:12.353Z,44.10
2022-12-18T17:50:14.636Z,49.30
2022-12-18T17:55:16.900Z,46.37
2022-12-18T18:00:21.151Z,48.03
2022-12-18T18:05:23.264Z,49.38
2022-12-18T18:10:25.459Z,57.53
2022-12-18T18:15:27.573Z,51.92
2022-12-18T18:20:30.553Z,48.83
2022-12-18T18:25:37.440Z,54.63
2022-12-18T18:30:39.896Z,49.38
2022-12-18T18:35:53.732Z,51.00
2022-12-18T18:41:05.660Z,50.30
2022-12-18T18:46:07.875Z,48.95
2022-12-18T18:51:14.678Z,52.78
2022-12-18T19:01:50.612Z,52.60
2022-12-18T19:06:52.946Z,55.10
2022-12-18T19:12:15.425Z,52.38
2022-12-18T19:17:17.580Z,56.45
2022-12-18T19:22:19.942Z,65.75
2022-12-18T19:27:22.113Z,70.90
2022-12-18T19:32:24.354Z,72.43
2022-12-18T19:37:26.882Z,71.30
2022-12-18T19:42:35.017Z,66.95
2022-12-18T19:47:37.721Z,64.95
2022-12-18T19:52:39.850Z,69.97
2022-12-18T19:57:42.063Z,70.82
2022-12-18T20:02:44.351Z,74.10
2022-12-18T20:07:46.527Z,72.20
2022-12-18T20:12:48.618Z,69.05
2022-12-18T20:17:50.719Z,83.07
2022-12-18T20:22:53.030Z,71.03
2022-12-18T20:27:55.265Z,83.47
2022-12-18T20:32:57.407Z,91.22
2022-12-18T20:37:59.524Z,79.47
2022-12-18T20:43:03.139Z,76.33
2022-12-18T20:48:05.400Z,76.20
2022-12-18T20:53:07.507Z,76.10
2022-12-18T20:58:09.733Z,74.80
2022-12-18T21:03:12.947Z,83.22
2022-12-18T21:08:15.263Z,73.17
2022-12-18T21:13:17.492Z,77.87
2022-12-18T21:18:20.746Z,81.95
2022-12-18T21:23:23.060Z,75.00
2022-12-18T21:28:25.240Z,85.90
2022-12-18T21:33:27.349Z,78.33
2022-12-18T21:38:29.496Z,73.85
2022-12-18T21:43:50.412Z,82.55
2022-12-18T21:48:52.498Z,80.78
2022-12-18T21:53:54.644Z,83.28
2022-12-18T21:58:57.466Z,79.33
2022-12-18T22:03:59.765Z,83.90
2022-12-18T22:09:02.077Z,78.07
2022-12-18T22:14:04.227Z,78.22
2022-12-18T22:19:06.678Z,92.18
2022-12-18T22:24:13.795Z,88.17
2022-12-18T22:29:37.468Z,87.47
2022-12-18T22:34:39.664Z,87.32
2022-12-18T22:39:42.290Z,86.50
2022-12-18T22:44:44.778Z,90.07
2022-12-18T22:49:46.925Z,87.47
2022-12-18T22:54:48.988Z,78.90
2022-12-18T22:59:51.785Z,77.12
2022-12-18T23:04:53.879Z,74.62
2022-12-18T23:09:59.581Z,74.57
2022-12-18T23:15:04.887Z,80.37
2022-12-18T23:20:07.421Z,79.80
2022-12-18T23:25:09.839Z,77.70
2022-12-18T23:30:12.519Z,69.32
2022-12-18T23:35:15.772Z,65.50
2022-12-18T23:40:18.717Z,68.13
2022-12-18T23:45:20.813Z,65.28
2022-12-18T23:50:28.941Z,74.40
2022-12-18T23:55:32.115Z,68.20
